Time;durP1;ratioP1;P1;durP2;ratioP2;P2;SDS_P1;SDS_P2;PMS_P1;PMS_P2;Temp;Humidity;BMP_temperature;BMP_pressure;BME280_temperature;BME280_humidity;BME280_pressure;Samples;Min_cycle;Max_cycle;Signal;HPM_P1;HPM_P2
2023/02/23 00:03:29;;;;;;;78.50;40.50;;;;;;;0.57;81.54;98865.64;221560;1279;22677;-78
2023/02/23 00:08:34;;;;;;;74.00;38.40;;;;;;;0.57;81.48;98858.36;221588;1278;22524;-78
2023/02/23 00:13:45;;;;;;;;;;;;;;;0.56;81.70;98854.09;221382;1279;22527;-77
2023/02/23 00:18:59;;;;;;;75.40;35.40;;;;;;;0.54;81.75;98855.48;221483;1279;25365;-79
2023/02/23 00:24:07;;;;;;;62.30;31.90;;;;;;;0.50;81.62;98852.84;221735;1279;22582;-78
2023/02/23 00:29:16;;;;;;;68.60;35.20;;;;;;;0.43;81.53;98850.80;221415;1279;26287;-78
2023/02/23 00:34:24;;;;;;;61.80;31.30;;;;;;;0.37;81.66;98851.08;221539;1279;23694;-78
2023/02/23 00:39:27;;;;;;;59.70;31.00;;;;;;;0.35;81.90;98850.06;221627;1279;22698;-78
2023/02/23 00:44:33;;;;;;;58.50;29.30;;;;;;;0.31;82.07;98850.52;221624;1278;22516;-78
2023/02/23 00:49:37;;;;;;;52.90;28.00;;;;;;;0.25;82.12;98855.48;221584;1278;22572;-78
2023/02/23 00:54:40;;;;;;;55.20;29.00;;;;;;;0.26;82.44;98857.68;221380;1279;22590;-79
2023/02/23 00:59:43;;;;;;;52.70;27.90;;;;;;;0.26;82.50;98857.83;221455;1279;22659;-78
2023/02/23 01:04:45;;;;;;;53.40;29.40;;;;;;;0.21;82.26;98853.42;221663;1275;24139;-77
2023/02/23 01:09:47;;;;;;;44.40;24.40;;;;;;;0.14;82.47;98851.58;221206;1278;22582;-78
2023/02/23 01:14:50;;;;;;;45.00;24.50;;;;;;;0.09;82.63;98850.21;221338;1279;22620;-78
2023/02/23 01:19:54;;;;;;;43.00;22.40;;;;;;;0.08;82.62;98851.67;221419;1279;24227;-77
2023/02/23 01:24:56;;;;;;;49.00;25.70;;;;;;;0.06;82.58;98854.23;221305;1279;23760;-77
2023/02/23 01:29:59;;;;;;;42.20;23.90;;;;;;;0.02;82.60;98844.40;221498;1279;22607;-77
2023/02/23 01:35:08;;;;;;;42.10;23.80;;;;;;;-0.05;82.67;98840.77;221390;1279;22689;-78
2023/02/23 01:40:27;;;;;;;41.90;22.40;;;;;;;-0.11;82.92;98831.52;221230;1279;25338;-77
2023/02/23 01:45:33;;;;;;;42.60;23.60;;;;;;;-0.16;83.14;98825.17;221653;1279;22539;-78
2023/02/23 01:51:19;;;;;;;40.70;23.60;;;;;;;-0.19;83.43;98823.20;221475;1279;22601;-78
2023/02/23 01:56:30;;;;;;;35.50;21.60;;;;;;;-0.23;83.00;98813.61;220236;1286;22618;-78
2023/02/23 02:01:34;;;;;;;38.60;22.40;;;;;;;-0.24;83.78;98810.38;221064;1279;22537;-78
2023/02/23 02:06:39;;;;;;;36.40;21.80;;;;;;;-0.24;83.27;98809.55;221342;1279;24097;-78
2023/02/23 02:11:45;;;;;;;33.60;19.30;;;;;;;-0.25;83.22;98811.15;221436;1279;25731;-77
2023/02/23 02:17:36;;;;;;;37.80;21.30;;;;;;;-0.28;83.16;98805.38;221429;1279;24229;-77
2023/02/23 02:23:22;;;;;;;32.30;18.20;;;;;;;-0.37;83.34;98801.19;220783;1279;24226;-78
2023/02/23 02:28:31;;;;;;;33.30;20.70;;;;;;;-0.42;83.45;98793.44;221398;1279;23013;-78
2023/02/23 02:33:47;;;;;;;34.00;19.10;;;;;;;-0.47;83.41;98792.98;221469;1280;22540;-77
2023/02/23 02:39:22;;;;;;;31.40;19.20;;;;;;;-0.50;83.88;98800.27;221140;1276;22555;-77
2023/02/23 02:44:28;;;;;;;30.50;17.70;;;;;;;-0.53;83.60;98798.44;221478;1280;25440;-78
2023/02/23 02:49:46;;;;;;;22.20;15.20;;;;;;;-0.54;83.98;98797.70;221455;1279;25551;-78
2023/02/23 02:54:57;;;;;;;23.70;14.60;;;;;;;-0.54;83.97;98795.12;221486;1279;23789;-78
2023/02/23 04:18:24;;;;;;;29.00;17.30;;;;;;;-0.63;84.58;98779.73;221611;1279;24294;-77
2023/02/23 04:23:33;;;;;;;27.30;17.00;;;;;;;-0.69;84.03;98775.45;221668;1279;24228;-78
2023/02/23 04:28:36;;;;;;;26.70;18.00;;;;;;;-0.74;84.33;98776.04;221587;1273;25350;-79
2023/02/23 04:33:38;;;;;;;29.50;19.30;;;;;;;-0.79;84.30;98779.55;221409;1279;22496;-78
2023/02/23 04:38:41;;;;;;;31.00;18.60;;;;;;;-0.83;84.50;98777.44;221389;1280;22545;-79
2023/02/23 04:43:43;;;;;;;32.80;20.70;;;;;;;-0.86;84.44;98776.57;221639;1279;22534;-77
2023/02/23 04:48:46;;;;;;;31.90;20.00;;;;;;;-0.88;84.62;98778.28;221381;1279;22602;-78
2023/02/23 04:53:49;;;;;;;32.70;20.70;;;;;;;-0.90;84.59;98773.27;221636;1273;23932;-78
2023/02/23 04:58:52;;;;;;;36.60;21.60;;;;;;;-0.92;84.63;98777.95;221642;1275;22594;-78
2023/02/23 05:03:59;;;;;;;31.40;20.80;;;;;;;-0.95;84.77;98772.30;221589;1272;22556;-78
2023/02/23 05:09:05;;;;;;;34.90;20.60;;;;;;;-0.97;84.60;98772.30;221649;1274;26598;-79
2023/02/23 05:14:08;;;;;;;35.20;22.80;;;;;;;-0.98;84.93;98771.17;221683;1261;26469;-77
2023/02/23 05:19:11;;;;;;;31.10;19.50;;;;;;;-0.99;85.05;98773.15;221771;1275;24270;-77
2023/02/23 05:24:16;;;;;;;33.70;21.70;;;;;;;-1.02;84.86;98771.59;221451;1279;25230;-78
2023/02/23 05:29:19;;;;;;;33.70;21.50;;;;;;;-1.02;85.09;98771.48;221555;1279;25523;-79
2023/02/23 05:34:21;;;;;;;33.50;20.00;;;;;;;-1.02;85.50;98774.23;221510;1279;24080;-78
2023/02/23 05:39:24;;;;;;;34.80;20.90;;;;;;;-1.03;85.27;98774.96;221360;1277;22579;-78
2023/02/23 05:44:27;;;;;;;36.10;24.40;;;;;;;-1.04;85.21;98772.26;221580;1271;23809;-78
2023/02/23 05:49:29;;;;;;;38.10;23.80;;;;;;;-1.04;85.14;98773.20;221560;1279;25450;-78
2023/02/23 05:54:32;;;;;;;41.60;25.90;;;;;;;-1.04;85.60;98774.52;221234;1279;25259;-78
2023/02/23 05:59:35;;;;;;;42.40;26.40;;;;;;;-1.03;85.67;98771.87;221672;1267;23142;-80
2023/02/23 06:04:37;;;;;;;38.90;24.50;;;;;;;-0.99;85.60;98773.65;221305;1279;22537;-77
2023/02/23 06:09:40;;;;;;;44.50;26.80;;;;;;;-0.95;85.27;98778.03;221591;1257;22485;-78
2023/02/23 06:14:45;;;;;;;41.50;25.90;;;;;;;-0.89;85.26;98785.83;221531;1278;22580;-79
2023/02/23 06:19:49;;;;;;;41.90;26.20;;;;;;;-0.81;85.75;98793.17;221421;1272;22549;-79
2023/02/23 06:24:52;;;;;;;34.90;22.90;;;;;;;-0.74;85.42;98795.18;221556;1279;25291;-79
2023/02/23 06:29:54;;;;;;;35.80;24.20;;;;;;;-0.65;85.62;98798.05;221502;1273;24251;-78
2023/02/23 06:34:57;;;;;;;42.40;25.90;;;;;;;-0.54;85.19;98803.70;221210;1279;24250;-79
2023/02/23 06:40:00;;;;;;;38.30;25.30;;;;;;;-0.41;85.78;98801.16;221619;1265;24396;-76
2023/02/23 06:45:04;;;;;;;40.10;25.30;;;;;;;-0.29;85.28;98797.13;222009;1272;22600;-78
2023/02/23 06:50:08;;;;;;;41.60;27.10;;;;;;;-0.15;85.38;98796.92;221715;1273;25291;-78
2023/02/23 06:55:12;;;;;;;40.20;26.60;;;;;;;-0.05;85.23;98796.27;221885;1274;22537;-79
2023/02/23 07:00:16;;;;;;;36.30;24.30;;;;;;;0.08;84.99;98794.38;222232;1259;22594;-78
2023/02/23 07:05:24;;;;;;;40.30;25.00;;;;;;;0.23;85.22;98793.65;222119;1263;22566;-79
2023/02/23 07:10:29;;;;;;;43.70;27.10;;;;;;;0.36;84.66;98794.02;221690;1272;24239;-79
2023/02/23 07:15:35;;;;;;;39.90;25.50;;;;;;;0.49;84.68;98795.05;221707;1267;25300;-79
2023/02/23 07:20:37;;;;;;;40.00;26.50;;;;;;;0.69;85.14;98790.95;222060;1272;25246;-76
2023/02/23 07:25:40;;;;;;;43.10;26.50;;;;;;;0.88;84.84;98781.94;221825;1267;23299;-78
2023/02/23 07:30:42;;;;;;;44.20;28.90;;;;;;;1.04;84.36;98785.67;221767;1268;24204;-80
2023/02/23 07:35:44;;;;;;;51.40;31.60;;;;;;;1.21;84.28;98790.82;221644;1263;24277;-80
2023/02/23 07:40:49;;;;;;;46.50;29.80;;;;;;;1.40;84.31;98790.38;221673;1265;27359;-79
2023/02/23 07:45:51;;;;;;;45.50;29.20;;;;;;;1.58;84.12;98780.52;221696;1272;24353;-78
2023/02/23 07:50:53;;;;;;;66.10;33.30;;;;;;;1.76;83.86;98775.30;221758;1272;22543;-76
2023/02/23 07:55:57;;;;;;;519.80;79.90;;;;;;;1.93;83.81;98768.32;221638;1272;25300;-76
2023/02/23 08:00:59;;;;;;;45.20;30.00;;;;;;;2.12;83.98;98775.83;221603;1272;22567;-76
2023/02/23 08:06:01;;;;;;;196.60;45.00;;;;;;;2.30;83.65;98771.61;221596;1264;22547;-75
2023/02/23 08:11:04;;;;;;;47.40;29.40;;;;;;;2.50;83.62;98772.95;221673;1264;22668;-76
2023/02/23 08:16:07;;;;;;;46.10;29.50;;;;;;;2.64;83.01;98775.17;221453;1263;22543;-77
2023/02/23 08:21:09;;;;;;;44.80;29.70;;;;;;;2.79;82.90;98773.27;221444;1267;22649;-75
2023/02/23 08:26:11;;;;;;;44.10;30.20;;;;;;;2.98;82.73;98768.60;221387;1272;23306;-75
2023/02/23 08:31:17;;;;;;;51.90;32.40;;;;;;;3.16;82.53;98770.70;221452;1275;25358;-76
2023/02/23 08:36:20;;;;;;;44.80;30.50;;;;;;;3.38;82.25;98770.90;221587;1272;24273;-76
2023/02/23 08:41:22;;;;;;;43.00;30.10;;;;;;;3.58;82.01;98767.48;221580;1265;22536;-76
2023/02/23 08:46:25;;;;;;;46.60;30.20;;;;;;;3.75;81.45;98771.98;221676;1256;22600;-74
2023/02/23 08:51:27;;;;;;;42.20;30.80;;;;;;;3.89;81.18;98780.95;221694;1259;22534;-73
2023/02/23 08:56:30;;;;;;;41.70;30.80;;;;;;;4.09;81.27;98778.59;221653;1265;25439;-73
2023/02/23 09:01:33;;;;;;;43.90;30.40;;;;;;;4.33;80.83;98782.61;221541;1265;22536;-74
2023/02/23 09:06:36;;;;;;;46.20;32.20;;;;;;;4.59;80.67;98777.88;221654;1259;22553;-74
2023/02/23 09:11:38;;;;;;;47.90;30.40;;;;;;;4.86;80.56;98773.48;221525;1267;25255;-73
2023/02/23 09:16:40;;;;;;;51.30;31.40;;;;;;;5.04;79.92;98765.09;221349;1257;22923;-74
2023/02/23 09:21:43;;;;;;;43.00;29.90;;;;;;;5.15;79.68;98765.16;221262;1273;22641;-74
2023/02/23 09:26:45;;;;;;;156.10;46.50;;;;;;;5.28;79.29;98768.09;221367;1269;22536;-74
2023/02/23 09:31:47;;;;;;;64.80;35.90;;;;;;;5.46;79.11;98767.48;221465;1265;25281;-73
2023/02/23 09:36:50;;;;;;;76.10;35.40;;;;;;;5.66;79.01;98763.34;221642;1272;24168;-73
2023/02/23 09:42:12;;;;;;;44.80;31.60;;;;;;;5.91;78.94;98764.41;221331;1259;23760;-74
2023/02/23 09:47:35;;;;;;;47.10;31.70;;;;;;;6.20;78.52;98763.15;221719;1272;22659;-74
2023/02/23 09:53:04;;;;;;;43.80;28.80;;;;;;;6.46;78.16;98763.05;221613;1271;22591;-75
2023/02/23 09:58:24;;;;;;;43.30;31.30;;;;;;;6.69;78.06;98762.83;221754;1263;22546;-75
2023/02/23 10:03:32;;;;;;;46.70;31.80;;;;;;;6.96;77.79;98760.59;221840;1256;22589;-75
2023/02/23 10:08:45;;;;;;;44.70;31.00;;;;;;;7.15;77.30;98764.52;221698;1267;22878;-75
2023/02/23 10:13:47;;;;;;;48.70;31.90;;;;;;;7.32;77.01;98766.98;221599;1267;25416;-74
2023/02/23 10:18:59;;;;;;;43.40;31.50;;;;;;;7.50;76.75;98756.58;221666;1271;22526;-75
2023/02/23 10:24:13;;;;;;;47.00;31.40;;;;;;;7.71;76.58;98754.77;221708;1270;22769;-75
2023/02/23 10:29:29;;;;;;;44.20;31.70;;;;;;;7.93;76.01;98749.18;221708;1259;24256;-75
2023/02/23 10:34:34;;;;;;;50.90;32.10;;;;;;;8.17;75.85;98743.99;221442;1265;23705;-75
2023/02/23 10:39:36;;;;;;;44.50;31.10;;;;;;;8.31;75.73;98743.40;221926;1272;22540;-73
2023/02/23 10:44:44;;;;;;;42.90;30.00;;;;;;;8.36;75.25;98731.98;221702;1272;22560;-74
2023/02/23 10:49:50;;;;;;;45.10;29.70;;;;;;;8.42;75.22;98729.23;221686;1272;24396;-75
2023/02/23 10:54:53;;;;;;;40.20;28.60;;;;;;;8.49;75.05;98719.74;221788;1266;22532;-76
2023/02/23 11:00:15;;;;;;;44.80;30.00;;;;;;;8.60;74.83;98717.02;221771;1259;24401;-75
2023/02/23 11:05:44;;;;;;;40.70;29.50;;;;;;;8.78;74.88;98709.02;221694;1272;22536;-75
2023/02/23 11:10:58;;;;;;;38.90;29.00;;;;;;;9.03;74.71;98701.84;221781;1270;22631;-74
2023/02/23 11:16:09;;;;;;;43.90;29.30;;;;;;;9.16;74.04;98692.91;221518;1265;167343;-75
2023/02/23 11:21:16;;;;;;;44.50;30.30;;;;;;;9.29;74.03;98686.87;221520;1275;22540;-76
2023/02/23 11:26:31;;;;;;;40.20;28.30;;;;;;;9.51;73.84;98687.70;221436;1275;22536;-79
2023/02/23 11:31:34;;;;;;;41.40;29.70;;;;;;;9.68;73.34;98680.93;221455;1256;23406;-76
2023/02/23 11:36:38;;;;;;;38.30;26.70;;;;;;;9.93;73.18;98676.11;221376;1269;23715;-75
2023/02/23 11:41:40;;;;;;;38.90;27.00;;;;;;;10.11;72.79;98672.15;221519;1261;22612;-75
2023/02/23 11:46:44;;;;;;;36.80;26.20;;;;;;;10.22;72.54;98666.36;221567;1274;22574;-74
2023/02/23 11:51:49;;;;;;;40.50;26.80;;;;;;;10.38;72.55;98661.40;221779;1259;22564;-75
2023/02/23 11:56:54;;;;;;;38.90;26.10;;;;;;;10.52;71.93;98661.77;222120;1259;22533;-74
2023/02/23 12:02:18;;;;;;;38.40;27.90;;;;;;;10.71;72.02;98661.06;221561;1272;23496;-74
2023/02/23 12:07:41;;;;;;;35.50;23.50;;;;;;;10.88;71.78;98658.80;221762;1274;22621;-76
2023/02/23 12:13:01;;;;;;;28.50;19.70;;;;;;;10.98;71.22;98652.31;221717;1272;23986;-80
2023/02/23 12:18:17;;;;;;;27.30;17.90;;;;;;;11.14;71.17;98643.61;221845;1268;22543;-78
2023/02/23 12:23:27;;;;;;;24.10;17.20;;;;;;;11.24;70.38;98639.63;221571;1265;24283;-78
2023/02/23 12:28:36;;;;;;;23.10;15.80;;;;;;;11.27;70.07;98630.77;221483;1266;25309;-78
2023/02/23 12:33:47;;;;;;;20.30;14.70;;;;;;;11.40;70.32;98622.11;221457;1272;22572;-78
2023/02/23 12:39:03;;;;;;;20.80;15.30;;;;;;;11.51;70.09;98608.16;221721;1263;25249;-79
2023/02/23 12:44:31;;;;;;;20.50;15.20;;;;;;;11.58;69.78;98602.64;221713;1272;22551;-79
2023/02/23 12:49:56;;;;;;;19.80;14.60;;;;;;;11.60;69.38;98595.11;221727;1271;22764;-80
2023/02/23 12:54:59;;;;;;;24.10;15.80;;;;;;;11.61;68.81;98591.29;221714;1272;24407;-80
2023/02/23 13:00:29;;;;;;;27.90;18.50;;;;;;;11.65;69.11;98585.23;221727;1268;25367;-76
2023/02/23 13:05:38;;;;;;;23.60;16.90;;;;;;;11.74;69.03;98575.73;221657;1270;23861;-78
2023/02/23 13:11:05;;;;;;;25.00;16.20;;;;;;;11.80;68.88;98572.08;221640;1272;22560;-77
2023/02/23 13:16:31;;;;;;;19.80;14.20;;;;;;;11.87;68.83;98567.45;221499;1264;22533;-77
2023/02/23 13:21:39;;;;;;;22.20;14.60;;;;;;;11.90;68.44;98564.70;221875;1259;22535;-75
2023/02/23 13:27:02;;;;;;;26.10;15.30;;;;;;;11.92;68.26;98561.14;221567;1275;25158;-75
2023/02/23 13:32:15;;;;;;;23.00;14.20;;;;;;;11.95;68.31;98558.73;221560;1272;22589;-76
2023/02/23 13:37:25;;;;;;;21.40;14.20;;;;;;;11.99;68.02;98554.88;221374;1272;24295;-75
2023/02/23 13:43:05;;;;;;;22.00;14.10;;;;;;;12.04;67.78;98547.20;221430;1258;24308;-75
2023/02/23 13:48:26;;;;;;;22.70;14.30;;;;;;;12.06;67.73;98538.86;221571;1267;25342;-75
2023/02/23 13:54:10;;;;;;;;;;;;;;;;;;;;;
2023/02/23 13:59:44;;;;;;;19.90;12.40;;;;;;;12.33;67.86;98528.14;221722;1266;23789;-77
2023/02/23 14:04:52;;;;;;;17.10;12.80;;;;;;;12.40;67.81;98522.64;221551;1272;22763;-76
2023/02/23 14:10:05;;;;;;;22.00;12.80;;;;;;;12.36;67.30;98518.02;221704;1263;24221;-76
2023/02/23 14:15:26;;;;;;;19.80;12.90;;;;;;;12.26;67.32;98514.45;222095;1257;23236;-76
2023/02/23 14:20:38;;;;;;;19.60;13.40;;;;;;;12.19;67.58;98507.92;223764;1266;25306;-77
2023/02/23 14:25:52;;;;;;;20.10;12.90;;;;;;;12.11;67.54;98508.27;222165;1272;25047;-76
2023/02/23 14:31:10;;;;;;;24.60;15.70;;;;;;;12.01;67.65;98506.64;221845;1266;22556;-76
2023/02/23 14:36:21;;;;;;;24.10;15.30;;;;;;;11.88;67.34;98505.25;221768;1268;22574;-75
2023/02/23 14:41:34;;;;;;;25.20;15.70;;;;;;;11.71;67.34;98500.73;222133;1272;22651;-76
2023/02/23 14:46:36;;;;;;;24.10;16.70;;;;;;;11.55;67.47;98500.38;221841;1269;22542;-76
2023/02/23 14:52:06;;;;;;;28.30;18.20;;;;;;;11.36;67.40;98502.98;221723;1257;23348;-74
2023/02/23 14:57:17;;;;;;;27.90;17.10;;;;;;;11.14;67.41;98501.58;221512;1262;23050;-74
2023/02/23 15:02:23;;;;;;;29.00;18.00;;;;;;;10.93;67.47;98498.00;221763;1272;22602;-75
2023/02/23 15:07:39;;;;;;;29.00;18.40;;;;;;;10.81;67.98;98492.70;221455;1276;23812;-75
2023/02/23 15:12:42;;;;;;;27.20;18.90;;;;;;;10.69;67.89;98485.73;221262;1275;22544;-75
2023/02/23 15:17:46;;;;;;;27.80;18.20;;;;;;;10.54;68.32;98482.27;221347;1279;22657;-76
2023/02/23 15:22:53;;;;;;;31.30;18.70;;;;;;;10.40;68.50;98477.89;221439;1278;22545;-75
2023/02/23 15:27:59;;;;;;;32.90;21.10;;;;;;;10.30;68.67;98474.86;221563;1278;22526;-75
2023/02/23 15:33:11;;;;;;;32.60;24.80;;;;;;;10.17;68.86;98473.05;221228;1279;24222;-75
2023/02/23 15:38:31;;;;;;;44.80;29.00;;;;;;;10.04;69.08;98471.24;221242;1275;25600;-75
2023/02/23 15:43:45;;;;;;;51.50;31.30;;;;;;;9.90;69.12;98461.70;221437;1277;22534;-75
2023/02/23 15:48:49;;;;;;;54.50;32.40;;;;;;;9.74;69.38;98463.83;221491;1262;22567;-75
2023/02/23 15:53:52;;;;;;;53.60;35.40;;;;;;;9.58;69.56;98463.52;221701;1278;23849;-75
2023/02/23 15:59:12;;;;;;;59.20;38.10;;;;;;;9.45;70.16;98462.88;221547;1279;22611;-76
2023/02/23 16:04:18;;;;;;;66.00;43.10;;;;;;;9.33;70.47;98455.29;221431;1278;22530;-75
2023/02/23 16:09:22;;;;;;;61.20;39.10;;;;;;;9.18;70.66;98455.17;221197;1273;22667;-75
2023/02/23 16:14:29;;;;;;;59.40;37.20;;;;;;;9.01;70.73;98452.00;221466;1273;23038;-76
2023/02/23 16:19:31;;;;;;;58.10;38.00;;;;;;;8.89;71.16;98449.95;221317;1278;24435;-75
2023/02/23 16:24:36;;;;;;;61.50;39.10;;;;;;;8.77;71.16;98450.64;221565;1269;23944;-75
2023/02/23 16:29:40;;;;;;;69.60;40.50;;;;;;;8.68;71.82;98447.23;221283;1278;23790;-74
2023/02/23 16:34:59;;;;;;;71.40;43.60;;;;;;;8.59;72.20;98443.59;221244;1278;25304;-75
2023/02/23 16:40:02;;;;;;;76.50;45.80;;;;;;;8.45;72.19;98446.00;221381;1278;22594;-75
2023/02/23 16:45:14;;;;;;;74.60;47.60;;;;;;;8.31;72.55;98443.45;221180;1278;22533;-76
2023/02/23 16:50:23;;;;;;;72.80;43.90;;;;;;;8.20;72.58;98445.91;221693;1275;25389;-75
2023/02/23 16:55:26;;;;;;;64.10;37.40;;;;;;;8.14;72.79;98447.43;221453;1278;25392;-75
2023/02/23 17:00:32;;;;;;;65.30;37.40;;;;;;;8.16;72.95;98443.08;221410;1278;22661;-76
2023/02/23 17:05:34;;;;;;;93.90;51.10;;;;;;;8.19;72.72;98444.27;221622;1276;25419;-76
2023/02/23 17:10:36;;;;;;;98.20;55.70;;;;;;;8.19;73.11;98444.77;221384;1278;23767;-75
2023/02/23 17:15:46;;;;;;;80.30;48.30;;;;;;;8.20;73.06;98445.88;221491;1278;25385;-73
2023/02/23 17:20:50;;;;;;;64.00;38.70;;;;;;;8.20;73.11;98445.55;221383;1278;22877;-75
2023/02/23 17:25:54;;;;;;;55.20;33.60;;;;;;;8.20;73.26;98444.40;221366;1279;24237;-75
2023/02/23 17:30:57;;;;;;;51.70;31.40;;;;;;;8.20;73.29;98442.63;221582;1279;25243;-74
2023/02/23 17:36:03;;;;;;;47.00;28.50;;;;;;;8.20;73.33;98439.43;221144;1280;22544;-75
2023/02/23 17:41:13;;;;;;;46.30;28.90;;;;;;;8.21;73.31;98440.17;221207;1280;22532;-75
2023/02/23 17:46:16;;;;;;;57.60;32.90;;;;;;;8.21;73.58;98436.36;221313;1278;22582;-75
2023/02/23 17:51:20;;;;;;;54.80;32.80;;;;;;;8.20;73.49;98435.09;221179;1280;24059;-75
2023/02/23 17:56:23;;;;;;;54.90;32.30;;;;;;;8.17;73.24;98434.90;221194;1280;25430;-75
2023/02/23 18:01:25;;;;;;;54.30;32.10;;;;;;;8.14;73.49;98431.84;221384;1269;24439;-76
2023/02/23 18:06:29;;;;;;;56.20;32.20;;;;;;;8.13;73.75;98428.98;221362;1279;24505;-75
2023/02/23 18:11:35;;;;;;;53.90;32.40;;;;;;;8.12;73.79;98426.50;221657;1273;22894;-75
2023/02/23 18:16:38;;;;;;;52.30;32.90;;;;;;;8.11;73.84;98423.59;221486;1273;22551;-75
2023/02/23 18:21:47;;;;;;;47.40;30.80;;;;;;;8.11;73.89;98422.77;221233;1278;23010;-75
2023/02/23 18:26:50;;;;;;;52.20;31.00;;;;;;;8.10;73.80;98419.27;221250;1279;23032;-75
2023/02/23 18:31:52;;;;;;;51.20;30.50;;;;;;;8.08;73.94;98411.51;221479;1278;24270;-76
2023/02/23 18:37:01;;;;;;;46.90;29.10;;;;;;;8.07;74.39;98409.35;221354;1276;22539;-75
2023/02/23 18:42:03;;;;;;;45.10;30.50;;;;;;;8.06;74.21;98403.47;221673;1278;22533;-75
2023/02/23 18:47:15;;;;;;;52.70;34.90;;;;;;;8.06;74.29;98399.00;221380;1278;22543;-74
2023/02/23 18:52:18;;;;;;;62.00;35.30;;;;;;;8.06;74.52;98393.90;221418;1274;22546;-75
2023/02/23 18:57:20;;;;;;;62.60;38.40;;;;;;;8.02;74.33;98387.13;221436;1279;23797;-75
2023/02/23 19:02:26;;;;;;;80.90;49.00;;;;;;;8.00;75.17;98393.39;221360;1278;22546;-75
2023/02/23 19:07:29;;;;;;;66.00;40.30;;;;;;;7.96;74.54;98389.94;221401;1278;22550;-74
2023/02/23 19:12:32;;;;;;;67.90;38.70;;;;;;;7.95;75.07;98384.36;221483;1278;22559;-75
2023/02/23 19:17:35;;;;;;;67.50;40.60;;;;;;;7.92;75.05;98379.22;221333;1278;22544;-75
2023/02/23 19:22:39;;;;;;;70.90;42.30;;;;;;;7.88;74.94;98378.63;221252;1279;22536;-75
2023/02/23 19:27:42;;;;;;;72.20;42.40;;;;;;;7.83;75.03;98376.95;221444;1279;22654;-75
2023/02/23 19:32:44;;;;;;;70.70;43.00;;;;;;;7.80;74.94;98378.04;221234;1279;23085;-76
2023/02/23 19:37:49;;;;;;;68.50;41.30;;;;;;;7.78;75.30;98374.27;221452;1260;24237;-74
2023/02/23 19:42:51;;;;;;;69.40;39.50;;;;;;;7.78;75.90;98375.79;221659;1275;22539;-74
2023/02/23 19:47:54;;;;;;;58.80;36.00;;;;;;;7.79;75.46;98367.98;221284;1279;22546;-75
2023/02/23 19:52:56;;;;;;;45.10;28.90;;;;;;;7.79;76.10;98366.38;221389;1279;23336;-74
2023/02/23 19:58:02;;;;;;;39.20;22.90;;;;;;;7.84;76.54;98360.58;221428;1279;22651;-75
2023/02/23 20:03:05;;;;;;;30.30;18.60;;;;;;;7.92;76.31;98354.70;221719;1275;22610;-75
2023/02/23 20:08:08;;;;;;;26.90;16.60;;;;;;;8.04;76.77;98353.27;221340;1279;23388;-75
2023/02/23 20:13:14;;;;;;;22.30;13.80;;;;;;;8.15;76.60;98354.69;221381;1279;23207;-75
2023/02/23 20:18:19;;;;;;;23.50;15.40;;;;;;;8.26;76.36;98351.58;221505;1278;22546;-75
2023/02/23 20:23:22;;;;;;;22.70;13.60;;;;;;;8.31;76.11;98348.79;221461;1279;22563;-75
2023/02/23 20:28:27;;;;;;;21.90;14.50;;;;;;;8.35;75.73;98348.80;221208;1278;22545;-75
2023/02/23 20:33:30;;;;;;;19.50;13.60;;;;;;;8.39;76.05;98340.88;221125;1278;22551;-75
2023/02/23 20:38:32;;;;;;;23.00;13.80;;;;;;;8.39;75.83;98335.05;221308;1279;26439;-75
2023/02/23 20:43:36;;;;;;;21.70;13.70;;;;;;;8.38;76.03;98330.55;221317;1279;22536;-73
2023/02/23 20:48:39;;;;;;;20.00;12.80;;;;;;;8.38;75.34;98331.60;221626;1278;22553;-74
2023/02/23 20:53:45;;;;;;;18.30;12.30;;;;;;;8.38;75.37;98321.55;221201;1279;24260;-75
2023/02/23 20:58:47;;;;;;;21.30;13.50;;;;;;;8.36;75.71;98321.89;221179;1278;22551;-75
2023/02/23 21:03:50;;;;;;;20.60;13.30;;;;;;;8.33;75.43;98318.20;221334;1276;23287;-74
2023/02/23 21:09:01;;;;;;;18.30;12.30;;;;;;;8.31;75.54;98317.23;221570;1275;22556;-74
2023/02/23 21:14:07;;;;;;;19.20;13.20;;;;;;;8.29;75.39;98310.45;221316;1279;24272;-75
2023/02/23 21:19:10;;;;;;;20.60;13.50;;;;;;;8.26;75.55;98312.00;221142;1279;25374;-75
2023/02/23 21:24:14;;;;;;;21.50;13.50;;;;;;;8.24;75.83;98308.67;221278;1279;23354;-75
2023/02/23 21:29:16;;;;;;;17.90;12.70;;;;;;;8.19;75.63;98304.84;221231;1272;22600;-75
2023/02/23 21:34:18;;;;;;;22.40;13.20;;;;;;;8.14;75.76;98301.04;221258;1279;22621;-75
2023/02/23 21:39:21;;;;;;;17.90;12.80;;;;;;;8.11;75.77;98297.23;221458;1279;22597;-75
2023/02/23 21:44:23;;;;;;;18.40;12.30;;;;;;;8.07;76.00;98293.98;221310;1278;22550;-75
2023/02/23 21:49:26;;;;;;;20.90;13.00;;;;;;;8.02;75.85;98288.41;221244;1278;22541;-73
2023/02/23 21:54:28;;;;;;;19.20;11.90;;;;;;;7.99;75.87;98285.13;221299;1279;22544;-73
2023/02/23 21:59:33;;;;;;;23.60;13.60;;;;;;;7.98;76.13;98282.27;221285;1279;22546;-75
2023/02/23 22:04:35;;;;;;;18.80;11.90;;;;;;;7.95;76.21;98279.96;221265;1280;24122;-75
2023/02/23 22:09:38;;;;;;;18.50;12.40;;;;;;;7.91;75.76;98276.71;220983;1279;22657;-74
2023/02/23 22:14:43;;;;;;;20.00;12.80;;;;;;;7.89;76.05;98271.05;221255;1280;22536;-74
2023/02/23 22:19:49;;;;;;;18.50;12.40;;;;;;;7.86;76.41;98265.61;221286;1279;24229;-75
2023/02/23 22:24:51;;;;;;;21.10;13.40;;;;;;;7.84;76.20;98264.14;221134;1280;22539;-74
2023/02/23 22:29:53;;;;;;;18.20;12.90;;;;;;;7.82;76.60;98259.88;221084;1273;22528;-75
2023/02/23 22:34:55;;;;;;;17.80;12.20;;;;;;;7.78;76.21;98255.02;221449;1274;23774;-75
2023/02/23 22:39:58;;;;;;;19.00;12.50;;;;;;;7.75;76.37;98254.17;221109;1279;22590;-74
2023/02/23 22:45:02;;;;;;;20.10;12.50;;;;;;;7.72;76.29;98255.91;221550;1279;24262;-74
2023/02/23 22:50:12;;;;;;;19.10;12.70;;;;;;;7.69;76.52;98250.70;221473;1277;22762;-75
2023/02/23 22:55:15;;;;;;;20.40;13.20;;;;;;;7.65;76.73;98247.98;221375;1279;22530;-75
2023/02/23 23:00:17;;;;;;;21.50;13.60;;;;;;;7.62;76.61;98244.20;221416;1277;24779;-74
2023/02/23 23:05:20;;;;;;;21.10;13.60;;;;;;;7.58;76.68;98239.42;221602;1276;24357;-74
2023/02/23 23:10:25;;;;;;;20.20;13.10;;;;;;;7.57;76.96;98238.45;221381;1275;25319;-75
2023/02/23 23:15:28;;;;;;;20.90;13.70;;;;;;;7.56;76.73;98234.80;221120;1279;174187;-75
2023/02/23 23:20:30;;;;;;;21.80;13.20;;;;;;;7.53;77.06;98227.36;221393;1273;24270;-75
2023/02/23 23:25:32;;;;;;;20.90;13.70;;;;;;;7.50;76.80;98212.38;221441;1276;22541;-74
2023/02/23 23:30:35;;;;;;;21.20;13.10;;;;;;;7.47;76.96;98211.42;221474;1279;22538;-74
2023/02/23 23:35:37;;;;;;;20.70;12.90;;;;;;;7.46;76.83;98213.54;221418;1279;22563;-75
2023/02/23 23:40:45;;;;;;;18.30;11.80;;;;;;;7.41;77.18;98210.39;221525;1272;26390;-74
2023/02/23 23:45:50;;;;;;;18.10;11.80;;;;;;;7.37;77.04;98207.34;221100;1277;22591;-74
2023/02/23 23:50:54;;;;;;;21.10;13.20;;;;;;;7.33;77.18;98200.25;221664;1273;22541;-75
2023/02/23 23:56:04;;;;;;;19.90;13.30;;;;;;;7.31;77.35;98199.35;221440;1279;23765;-75
